createdAt,value
2023-01-31T00:01:29.578Z,4.57
2023-01-31T00:04:13.503Z,9.88
2023-01-31T00:06:56.095Z,6.82
2023-01-31T00:09:38.709Z,7.38
2023-01-31T00:12:21.302Z,9.07
2023-01-31T00:15:04.215Z,6.85
2023-01-31T00:17:46.837Z,5.25
2023-01-31T00:20:30.873Z,6.28
2023-01-31T00:23:13.457Z,10.98
2023-01-31T00:25:56.059Z,11.10
2023-01-31T00:28:39.407Z,11.35
2023-01-31T00:31:23.171Z,5.80
2023-01-31T00:34:05.887Z,6.40
2023-01-31T00:36:49.843Z,6.43
2023-01-31T00:39:32.439Z,6.78
2023-01-31T00:42:14.993Z,6.35
2023-01-31T00:44:57.581Z,4.80
2023-01-31T00:47:40.427Z,3.60
2023-01-31T00:50:23.027Z,7.57
2023-01-31T00:53:06.945Z,6.85
2023-01-31T00:55:51.389Z,3.80
2023-01-31T00:58:35.043Z,4.78
2023-01-31T01:01:19.349Z,5.07
2023-01-31T01:04:02.471Z,6.40
2023-01-31T01:06:50.333Z,5.10
2023-01-31T01:09:34.937Z,2.63
2023-01-31T01:12:17.755Z,4.15
2023-01-31T01:15:00.343Z,5.40
2023-01-31T01:17:42.928Z,6.18
2023-01-31T01:20:25.601Z,4.38
2023-01-31T01:23:09.381Z,5.40
2023-01-31T01:25:53.357Z,5.85
2023-01-31T01:28:37.166Z,7.15
2023-01-31T01:31:20.999Z,5.47
2023-01-31T01:34:05.166Z,4.78
2023-01-31T01:36:48.251Z,4.28
2023-01-31T01:39:31.781Z,4.15
2023-01-31T01:42:19.679Z,5.60
2023-01-31T01:45:02.819Z,3.28
2023-01-31T01:47:47.797Z,3.17
2023-01-31T01:50:32.136Z,4.25
2023-01-31T01:53:17.292Z,5.10
2023-01-31T01:56:02.787Z,6.20
2023-01-31T01:58:49.329Z,7.00
2023-01-31T02:01:34.624Z,4.22
2023-01-31T02:04:24.348Z,7.32
2023-01-31T02:07:08.770Z,8.05
2023-01-31T02:09:54.367Z,8.50
2023-01-31T02:12:37.273Z,7.18
2023-01-31T02:15:22.424Z,5.45
2023-01-31T02:18:06.112Z,6.28
2023-01-31T02:21:07.938Z,7.45
2023-01-31T02:24:06.314Z,5.70
2023-01-31T02:27:16.072Z,7.53
2023-01-31T02:30:19.757Z,4.50
2023-01-31T02:33:13.241Z,4.05
2023-01-31T02:35:59.427Z,5.20
2023-01-31T02:38:58.928Z,5.47
2023-01-31T02:41:44.926Z,10.63
2023-01-31T02:44:47.415Z,7.18
2023-01-31T02:47:37.807Z,11.82
2023-01-31T02:50:25.744Z,8.70
2023-01-31T02:53:11.308Z,7.15
2023-01-31T02:56:14.497Z,8.75
2023-01-31T02:58:59.062Z,4.18
2023-01-31T03:01:44.645Z,10.75
2023-01-31T03:04:31.486Z,8.00
2023-01-31T03:07:16.901Z,6.13
2023-01-31T03:10:03.538Z,11.13
2023-01-31T03:12:52.012Z,5.80
2023-01-31T03:16:04.716Z,6.22
2023-01-31T03:18:50.525Z,4.03
2023-01-31T03:21:35.009Z,6.95
2023-01-31T03:24:20.356Z,6.32
2023-01-31T03:27:04.178Z,5.60
2023-01-31T03:29:46.977Z,4.80
2023-01-31T03:32:33.554Z,3.28
2023-01-31T03:35:16.809Z,6.07
2023-01-31T03:38:03.439Z,4.47
2023-01-31T03:40:54.119Z,9.63
2023-01-31T03:43:38.944Z,3.17
2023-01-31T03:46:23.898Z,3.13
2023-01-31T03:49:09.822Z,6.63
2023-01-31T03:51:55.202Z,5.47
2023-01-31T03:54:40.685Z,4.53
2023-01-31T03:57:25.775Z,3.83
2023-01-31T04:00:09.907Z,7.32
2023-01-31T04:03:05.639Z,3.85
2023-01-31T04:05:49.222Z,8.00
2023-01-31T04:08:32.802Z,6.05
2023-01-31T04:11:21.233Z,7.35
2023-01-31T04:14:05.486Z,5.80
2023-01-31T04:16:48.131Z,5.82
2023-01-31T04:19:30.832Z,6.85
2023-01-31T04:22:13.520Z,7.07
2023-01-31T04:24:56.154Z,5.95
2023-01-31T04:27:39.110Z,5.97
2023-01-31T04:30:23.347Z,6.40
2023-01-31T04:33:06.033Z,5.63
2023-01-31T04:35:48.660Z,6.00
2023-01-31T04:38:31.887Z,6.68
2023-01-31T04:41:14.585Z,5.03
2023-01-31T04:43:57.700Z,7.38
2023-01-31T04:46:41.786Z,7.38
2023-01-31T04:49:24.455Z,5.40
2023-01-31T04:52:07.417Z,6.57
2023-01-31T04:54:50.202Z,5.93
2023-01-31T04:57:32.904Z,4.65
2023-01-31T05:00:15.932Z,6.15
2023-01-31T05:03:01.178Z,9.63
2023-01-31T05:05:43.998Z,7.68
2023-01-31T05:08:26.619Z,4.72
2023-01-31T05:11:09.443Z,8.02
2023-01-31T05:13:52.069Z,7.18
2023-01-31T05:16:34.987Z,9.52
2023-01-31T05:19:19.011Z,8.77
2023-01-31T05:22:01.723Z,5.07
2023-01-31T05:24:44.539Z,6.75
2023-01-31T05:27:27.373Z,6.80
2023-01-31T05:30:11.038Z,9.70
2023-01-31T05:32:53.862Z,6.50
2023-01-31T05:35:39.299Z,5.85
2023-01-31T05:38:22.205Z,6.75
2023-01-31T05:41:05.035Z,8.70
2023-01-31T05:43:47.705Z,6.38
2023-01-31T05:46:30.351Z,8.93
2023-01-31T05:49:13.270Z,6.80
2023-01-31T05:51:57.324Z,6.63
2023-01-31T05:54:39.932Z,8.48
2023-01-31T05:57:22.569Z,7.47
2023-01-31T06:00:05.541Z,5.72
2023-01-31T06:02:57.739Z,8.05
2023-01-31T06:05:41.364Z,6.88
2023-01-31T06:08:25.397Z,5.78
2023-01-31T06:11:08.102Z,10.30
2023-01-31T06:13:50.800Z,8.65
2023-01-31T06:16:33.514Z,7.30
2023-01-31T06:19:16.224Z,8.05
2023-01-31T06:21:58.937Z,6.82
2023-01-31T06:24:42.990Z,9.15
2023-01-31T06:27:25.614Z,6.20
2023-01-31T06:30:09.088Z,6.35
2023-01-31T06:32:51.752Z,8.40
2023-01-31T06:35:34.445Z,6.38
2023-01-31T06:38:17.281Z,6.95
2023-01-31T06:41:01.314Z,11.43
2023-01-31T06:43:43.961Z,11.02
2023-01-31T06:46:26.793Z,11.85
2023-01-31T06:49:09.476Z,8.88
2023-01-31T06:51:52.344Z,8.27
2023-01-31T06:54:35.017Z,10.02
2023-01-31T06:57:19.157Z,8.52
2023-01-31T07:00:01.857Z,9.10
2023-01-31T07:02:44.491Z,8.43
2023-01-31T07:05:28.627Z,7.75
2023-01-31T07:08:11.331Z,6.40
2023-01-31T07:10:54.035Z,10.60
2023-01-31T07:13:38.069Z,9.23
2023-01-31T07:16:22.620Z,7.95
2023-01-31T07:19:05.357Z,9.02
2023-01-31T07:21:49.188Z,8.68
2023-01-31T07:24:32.365Z,9.75
2023-01-31T07:27:15.152Z,7.45
2023-01-31T07:29:59.264Z,4.88
2023-01-31T07:32:41.917Z,11.10
2023-01-31T07:35:24.623Z,8.93
2023-01-31T07:38:08.488Z,7.75
2023-01-31T07:40:52.492Z,11.63
2023-01-31T07:43:35.199Z,7.75
2023-01-31T07:46:19.288Z,6.38
2023-01-31T07:49:01.968Z,9.77
2023-01-31T07:51:44.667Z,12.27
2023-01-31T07:54:27.387Z,11.25
2023-01-31T07:57:10.132Z,9.63
2023-01-31T07:59:52.816Z,6.53
2023-01-31T08:02:54.336Z,9.18
2023-01-31T08:05:37.030Z,9.38
2023-01-31T08:08:19.703Z,10.95
2023-01-31T08:11:02.402Z,8.60
2023-01-31T08:13:46.721Z,8.77
2023-01-31T08:16:30.143Z,10.63
2023-01-31T08:19:14.443Z,10.30
2023-01-31T08:21:57.179Z,9.70
2023-01-31T08:24:39.875Z,11.43
2023-01-31T08:27:22.623Z,11.20
2023-01-31T08:30:06.026Z,7.60
2023-01-31T08:32:48.828Z,9.98
2023-01-31T08:35:32.889Z,9.05
2023-01-31T08:38:16.850Z,8.23
2023-01-31T08:40:59.669Z,9.18
2023-01-31T08:43:54.903Z,13.82
2023-01-31T08:46:39.334Z,9.70
2023-01-31T08:49:22.155Z,5.65
2023-01-31T08:52:06.273Z,9.80
2023-01-31T08:54:48.968Z,12.20
2023-01-31T08:57:31.747Z,10.60
2023-01-31T09:00:14.899Z,9.05
2023-01-31T09:02:58.185Z,10.55
2023-01-31T09:05:40.995Z,8.48
2023-01-31T09:08:25.088Z,6.32
2023-01-31T09:11:08.028Z,8.73
2023-01-31T09:13:51.951Z,7.10
2023-01-31T09:16:34.731Z,10.77
2023-01-31T09:19:17.422Z,11.23
2023-01-31T09:22:00.213Z,10.35
2023-01-31T09:24:46.081Z,13.40
2023-01-31T09:27:29.123Z,7.88
2023-01-31T09:30:12.457Z,10.07
2023-01-31T09:32:55.245Z,10.35
2023-01-31T09:35:38.171Z,7.97
2023-01-31T09:38:20.887Z,9.60
2023-01-31T09:41:06.673Z,8.80
2023-01-31T09:43:51.855Z,10.65
2023-01-31T09:46:37.557Z,8.40
2023-01-31T09:49:22.999Z,10.50
2023-01-31T09:52:05.950Z,10.18
2023-01-31T09:54:48.836Z,8.98
2023-01-31T09:57:38.345Z,9.93
2023-01-31T10:00:23.347Z,9.95
2023-01-31T10:03:19.441Z,10.10
2023-01-31T10:06:06.342Z,7.63
2023-01-31T10:08:51.634Z,9.55
2023-01-31T10:11:38.267Z,7.13
2023-01-31T10:14:27.295Z,6.38
2023-01-31T10:17:12.399Z,6.18
2023-01-31T10:19:57.846Z,7.68
2023-01-31T10:22:44.637Z,5.57
2023-01-31T10:25:29.034Z,6.35
2023-01-31T10:28:14.358Z,9.18
2023-01-31T10:31:01.249Z,4.57
2023-01-31T10:33:49.110Z,6.53
2023-01-31T10:36:34.550Z,6.15
2023-01-31T10:39:21.292Z,5.32
2023-01-31T10:42:09.983Z,3.42
2023-01-31T10:44:53.987Z,4.70
2023-01-31T10:47:39.140Z,6.60
2023-01-31T10:50:26.370Z,6.85
2023-01-31T10:53:21.414Z,5.78
2023-01-31T10:56:05.933Z,3.45
2023-01-31T10:58:48.737Z,5.05
2023-01-31T11:01:31.585Z,4.32
2023-01-31T11:04:26.980Z,5.57
2023-01-31T11:07:10.611Z,5.72
2023-01-31T11:09:54.627Z,4.22
2023-01-31T11:12:41.871Z,6.13
2023-01-31T11:15:26.023Z,7.85
2023-01-31T11:18:14.450Z,5.80
2023-01-31T11:20:59.865Z,4.25
2023-01-31T11:23:44.694Z,3.80
2023-01-31T11:26:30.213Z,4.78
2023-01-31T11:29:28.682Z,5.90
2023-01-31T11:32:18.768Z,4.85
2023-01-31T11:35:03.646Z,3.90
2023-01-31T11:37:54.234Z,6.03
2023-01-31T11:40:38.069Z,3.38
2023-01-31T11:43:26.025Z,3.83
2023-01-31T11:46:08.934Z,3.08
2023-01-31T11:48:51.926Z,3.60
2023-01-31T11:51:35.975Z,4.60
2023-01-31T11:54:22.982Z,3.15
2023-01-31T11:57:14.531Z,2.05
2023-01-31T11:59:59.399Z,4.18
2023-01-31T12:02:42.775Z,3.65
2023-01-31T12:05:31.775Z,4.50
2023-01-31T12:08:30.583Z,3.53
2023-01-31T12:11:27.801Z,2.33
2023-01-31T12:14:12.808Z,2.38
2023-01-31T12:16:56.810Z,2.13
2023-01-31T12:19:44.863Z,2.10
2023-01-31T12:22:31.354Z,2.83
2023-01-31T12:25:20.543Z,4.90
2023-01-31T12:28:11.463Z,3.00
2023-01-31T12:31:01.981Z,1.65
2023-01-31T12:33:52.754Z,3.88
2023-01-31T12:36:40.784Z,1.88
2023-01-31T12:39:34.358Z,1.90
2023-01-31T12:42:28.746Z,2.30
2023-01-31T12:45:22.766Z,0.93
2023-01-31T12:48:15.343Z,1.85
2023-01-31T12:51:01.657Z,2.13
2023-01-31T12:53:51.135Z,1.80
2023-01-31T12:56:48.787Z,1.50
2023-01-31T12:59:39.196Z,1.20
2023-01-31T13:02:39.795Z,1.67
2023-01-31T13:05:28.408Z,1.95
2023-01-31T13:08:17.717Z,1.33
2023-01-31T13:11:03.526Z,1.60
2023-01-31T13:13:49.120Z,2.25
2023-01-31T13:16:35.193Z,1.88
2023-01-31T13:19:23.225Z,1.77
2023-01-31T13:22:09.538Z,2.08
2023-01-31T13:24:55.000Z,2.17
2023-01-31T13:27:39.372Z,2.42
2023-01-31T13:30:24.740Z,2.92
2023-01-31T13:33:16.279Z,3.50
2023-01-31T13:36:08.409Z,4.28
2023-01-31T13:38:52.383Z,2.92
2023-01-31T13:41:35.579Z,4.03
2023-01-31T13:44:18.287Z,10.35
2023-01-31T13:47:03.677Z,6.40
2023-01-31T13:49:49.531Z,5.00
2023-01-31T13:52:35.124Z,5.10
2023-01-31T13:55:20.294Z,4.78
2023-01-31T13:58:04.963Z,6.10
2023-01-31T14:00:50.850Z,7.25
2023-01-31T14:03:53.547Z,5.57
2023-01-31T14:06:55.061Z,6.35
2023-01-31T14:09:43.217Z,9.63
2023-01-31T14:12:35.776Z,5.32
2023-01-31T14:15:48.457Z,4.40
2023-01-31T14:18:41.478Z,5.15
2023-01-31T14:21:54.833Z,7.45
2023-01-31T14:25:07.004Z,7.50
2023-01-31T14:28:04.539Z,6.60
2023-01-31T14:30:48.705Z,10.93
2023-01-31T14:33:31.472Z,7.70
2023-01-31T14:36:42.166Z,7.30
2023-01-31T14:39:44.173Z,8.93
2023-01-31T14:42:37.919Z,7.90
2023-01-31T14:45:28.743Z,7.55
2023-01-31T14:48:30.857Z,7.63
2023-01-31T14:51:20.850Z,5.85
2023-01-31T14:54:16.920Z,5.32
2023-01-31T14:57:12.486Z,7.22
2023-01-31T14:59:56.970Z,4.93
2023-01-31T15:02:45.883Z,3.83
2023-01-31T15:05:42.575Z,2.05
2023-01-31T15:08:37.158Z,3.78
2023-01-31T15:11:42.382Z,3.95
2023-01-31T15:14:35.821Z,5.50
2023-01-31T15:17:34.444Z,4.93
2023-01-31T15:20:19.341Z,6.78
2023-01-31T15:23:05.940Z,13.15
2023-01-31T15:25:49.795Z,7.85
2023-01-31T15:28:35.046Z,11.48
2023-01-31T15:31:19.399Z,11.30
2023-01-31T15:34:04.130Z,11.93
2023-01-31T15:36:48.379Z,11.52
2023-01-31T15:39:35.389Z,6.85
2023-01-31T15:42:22.507Z,15.07
2023-01-31T15:45:24.454Z,9.93
2023-01-31T15:48:09.761Z,11.80
2023-01-31T15:50:53.817Z,12.60
2023-01-31T15:53:36.536Z,10.02
2023-01-31T15:56:23.064Z,15.15
2023-01-31T15:59:07.666Z,10.30
2023-01-31T16:01:51.395Z,14.25
2023-01-31T16:04:34.140Z,9.63
2023-01-31T16:07:18.201Z,14.20
2023-01-31T16:10:02.926Z,12.93
2023-01-31T16:12:49.013Z,12.45
2023-01-31T16:15:32.264Z,11.32
2023-01-31T16:18:15.377Z,9.35
2023-01-31T16:20:58.192Z,7.25
2023-01-31T16:23:41.020Z,4.85
2023-01-31T16:26:25.565Z,2.80
2023-01-31T16:29:11.167Z,2.28
2023-01-31T16:31:55.238Z,2.72
2023-01-31T16:34:38.023Z,2.67
2023-01-31T16:37:29.553Z,2.20
2023-01-31T16:40:20.633Z,3.10
2023-01-31T16:43:11.228Z,5.40
2023-01-31T16:45:56.708Z,4.45
2023-01-31T16:48:40.456Z,4.07
2023-01-31T16:51:38.010Z,5.28
2023-01-31T16:54:24.530Z,5.28
2023-01-31T16:57:16.773Z,4.40
2023-01-31T16:59:59.572Z,8.27
2023-01-31T17:02:44.174Z,5.00
2023-01-31T17:05:29.232Z,8.02
2023-01-31T17:08:15.330Z,5.43
2023-01-31T17:10:57.994Z,8.60
2023-01-31T17:13:40.729Z,8.00
2023-01-31T17:16:25.573Z,9.68
2023-01-31T17:19:09.625Z,11.40
2023-01-31T17:21:52.379Z,11.65
2023-01-31T17:24:35.044Z,7.70
2023-01-31T17:27:18.782Z,8.25
2023-01-31T17:30:01.509Z,12.27
2023-01-31T17:32:44.306Z,12.90
2023-01-31T17:35:29.993Z,8.65
2023-01-31T17:38:12.724Z,10.43
2023-01-31T17:40:55.447Z,8.70
2023-01-31T17:43:38.166Z,10.55
2023-01-31T17:46:21.414Z,6.43
2023-01-31T17:49:04.204Z,12.60
2023-01-31T17:51:48.341Z,9.43
2023-01-31T17:54:31.243Z,8.77
2023-01-31T17:57:13.886Z,13.85
2023-01-31T17:59:56.586Z,11.90
2023-01-31T18:02:41.982Z,14.50
2023-01-31T18:05:38.230Z,11.13
2023-01-31T18:08:23.443Z,11.80
2023-01-31T18:11:06.600Z,15.13
2023-01-31T18:13:49.389Z,17.02
2023-01-31T18:16:32.420Z,12.30
2023-01-31T18:19:15.128Z,10.25
2023-01-31T18:21:59.565Z,12.10
2023-01-31T18:24:44.749Z,12.18
2023-01-31T18:27:27.496Z,13.25
2023-01-31T18:30:11.005Z,14.18
2023-01-31T18:32:53.854Z,13.73
2023-01-31T18:35:36.631Z,16.33
2023-01-31T18:38:19.352Z,13.40
2023-01-31T18:41:06.591Z,15.18
2023-01-31T18:43:49.911Z,13.43
2023-01-31T18:46:32.762Z,15.15
2023-01-31T18:49:15.697Z,14.13
2023-01-31T18:51:58.563Z,10.38
2023-01-31T18:54:41.468Z,9.90
2023-01-31T18:57:25.628Z,13.40
2023-01-31T19:00:09.232Z,13.18
2023-01-31T19:02:52.078Z,13.02
2023-01-31T19:05:37.732Z,9.57
2023-01-31T19:08:20.445Z,16.00
2023-01-31T19:11:07.220Z,14.00
2023-01-31T19:13:51.308Z,11.93
2023-01-31T19:16:36.813Z,15.77
2023-01-31T19:19:20.889Z,13.07
2023-01-31T19:22:03.816Z,13.98
2023-01-31T19:24:46.671Z,17.13
2023-01-31T19:27:29.370Z,9.90
2023-01-31T19:30:14.764Z,15.32
2023-01-31T19:32:57.779Z,15.15
2023-01-31T19:35:40.687Z,11.60
2023-01-31T19:38:23.803Z,12.85
2023-01-31T19:41:07.356Z,12.60
2023-01-31T19:43:50.587Z,16.45
2023-01-31T19:46:35.843Z,13.70
2023-01-31T19:49:18.772Z,14.07
2023-01-31T19:52:01.585Z,12.43
2023-01-31T19:54:44.458Z,12.85
2023-01-31T19:57:27.206Z,12.52
2023-01-31T20:00:12.611Z,15.60
2023-01-31T20:02:57.173Z,14.82
2023-01-31T20:05:40.934Z,15.38
2023-01-31T20:08:25.051Z,7.78
2023-01-31T20:11:08.669Z,16.73
2023-01-31T20:13:51.991Z,17.27
2023-01-31T20:16:35.004Z,12.98
2023-01-31T20:19:21.117Z,15.75
2023-01-31T20:22:04.028Z,11.10
2023-01-31T20:24:46.964Z,18.80
2023-01-31T20:27:33.815Z,16.80
2023-01-31T20:30:20.064Z,14.35
2023-01-31T20:33:03.432Z,12.27
2023-01-31T20:35:47.984Z,18.08
2023-01-31T20:38:31.168Z,14.10
2023-01-31T20:41:15.064Z,12.73
2023-01-31T20:43:57.954Z,11.50
2023-01-31T20:46:40.695Z,18.15
2023-01-31T20:49:23.984Z,15.55
2023-01-31T20:52:08.137Z,16.23
2023-01-31T20:54:51.033Z,14.45
2023-01-31T20:57:33.940Z,11.85
2023-01-31T21:00:17.509Z,17.00
2023-01-31T21:03:00.224Z,17.45
2023-01-31T21:05:42.941Z,11.07
2023-01-31T21:08:27.251Z,15.13
2023-01-31T21:11:10.711Z,15.23
2023-01-31T21:13:53.440Z,10.88
2023-01-31T21:16:36.136Z,17.38
2023-01-31T21:19:18.966Z,13.57
2023-01-31T21:22:01.683Z,12.73
2023-01-31T21:24:45.704Z,11.40
2023-01-31T21:27:28.456Z,13.52
2023-01-31T21:30:11.955Z,10.27
2023-01-31T21:32:54.691Z,11.75
2023-01-31T21:35:37.584Z,10.93
2023-01-31T21:38:21.012Z,9.45
2023-01-31T21:41:22.897Z,9.75
2023-01-31T21:44:05.724Z,8.38
2023-01-31T21:46:49.568Z,9.93
2023-01-31T21:49:32.252Z,11.10
2023-01-31T21:52:15.029Z,10.07
2023-01-31T21:54:57.658Z,13.75
2023-01-31T21:57:41.706Z,11.38
2023-01-31T22:00:24.525Z,11.85
2023-01-31T22:03:07.255Z,12.13
2023-01-31T22:05:49.944Z,12.15
2023-01-31T22:08:32.815Z,9.57
2023-01-31T22:11:15.748Z,9.65
2023-01-31T22:14:00.478Z,10.80
2023-01-31T22:16:43.222Z,9.02
2023-01-31T22:19:25.923Z,11.20
2023-01-31T22:22:08.674Z,11.30
2023-01-31T22:24:51.335Z,10.43
2023-01-31T22:27:34.010Z,10.73
2023-01-31T22:30:18.279Z,13.55
2023-01-31T22:33:00.985Z,14.07
2023-01-31T22:35:43.693Z,11.82
2023-01-31T22:38:26.632Z,10.35
2023-01-31T22:41:10.461Z,16.42
2023-01-31T22:43:53.465Z,11.13
2023-01-31T22:46:37.558Z,10.07
2023-01-31T22:49:20.371Z,9.73
2023-01-31T22:52:05.313Z,7.10
2023-01-31T22:54:48.032Z,12.43
2023-01-31T22:57:30.747Z,9.40
2023-01-31T23:00:13.840Z,15.15
2023-01-31T23:02:58.106Z,8.68
2023-01-31T23:05:41.128Z,10.82
2023-01-31T23:08:26.740Z,5.72
2023-01-31T23:11:10.450Z,12.27
2023-01-31T23:13:53.182Z,7.45
2023-01-31T23:16:53.389Z,8.65
2023-01-31T23:19:37.886Z,14.77
2023-01-31T23:22:20.552Z,12.15
2023-01-31T23:25:03.278Z,14.02
2023-01-31T23:27:46.111Z,8.02
2023-01-31T23:30:28.792Z,13.25
2023-01-31T23:33:11.486Z,15.30
2023-01-31T23:35:55.559Z,13.13
2023-01-31T23:38:38.464Z,14.73
2023-01-31T23:41:21.099Z,11.13
2023-01-31T23:44:03.909Z,10.98
2023-01-31T23:46:46.712Z,15.07
2023-01-31T23:49:29.357Z,10.60
2023-01-31T23:52:13.453Z,11.15
2023-01-31T23:54:56.105Z,8.90
2023-01-31T23:57:38.874Z,10.40
